createdAt,value
2019-04-03T00:01:59.033Z,94597.86
2019-04-03T00:07:05.188Z,94599.66
2019-04-03T00:12:10.477Z,94593.48
2019-04-03T00:17:15.925Z,94593.30
2019-04-03T00:22:21.995Z,94589.45
2019-04-03T00:27:26.845Z,94589.39
2019-04-03T00:32:31.341Z,94584.33
2019-04-03T00:37:35.790Z,94582.53
2019-04-03T00:42:40.255Z,94586.56
2019-04-03T00:47:44.707Z,94582.03
2019-04-03T00:52:49.160Z,94581.04
2019-04-03T00:57:54.757Z,94581.97
2019-04-03T01:02:59.782Z,94575.75
2019-04-03T01:08:04.231Z,94573.50
2019-04-03T01:13:08.678Z,94563.11
2019-04-03T01:18:13.164Z,94553.41
2019-04-03T01:23:17.620Z,94540.88
2019-04-03T01:28:22.070Z,94540.91
2019-04-03T01:33:26.641Z,94534.09
2019-04-03T01:38:31.229Z,94515.28
2019-04-03T01:43:35.683Z,94497.03
2019-04-03T01:48:40.245Z,94501.69
2019-04-03T01:53:44.757Z,94501.77
2019-04-03T01:58:49.219Z,94495.44
2019-04-03T02:03:53.744Z,94505.61
2019-04-03T02:08:58.194Z,94507.99
2019-04-03T02:14:02.659Z,94501.78
2019-04-03T02:19:07.123Z,94497.65
2019-04-03T02:24:11.564Z,94501.63
2019-04-03T02:29:16.018Z,94493.39
2019-04-03T02:34:20.469Z,94484.58
2019-04-03T02:39:27.357Z,94482.94
2019-04-03T02:44:31.329Z,94477.14
2019-04-03T02:49:35.839Z,94479.59
2019-04-03T02:54:42.489Z,94473.78
2019-04-03T02:59:47.014Z,94473.55
2019-04-03T03:04:54.582Z,94463.31
2019-04-03T03:09:58.112Z,94458.30
2019-04-03T03:15:03.157Z,94463.58
2019-04-03T03:20:09.090Z,94464.34
2019-04-03T03:25:13.827Z,94458.41
2019-04-03T03:30:35.949Z,94453.09
2019-04-03T03:35:31.154Z,94448.88
2019-04-03T03:40:32.932Z,94447.53
2019-04-03T03:45:37.992Z,94443.05
2019-04-03T03:50:43.323Z,94443.20
2019-04-03T03:55:48.822Z,94440.06
2019-04-03T04:00:58.249Z,94440.40
2019-04-03T04:06:00.293Z,94441.23
2019-04-03T04:11:05.321Z,94448.16
2019-04-03T04:16:09.942Z,94450.27
2019-04-03T04:21:14.421Z,94442.58
2019-04-03T04:26:19.298Z,94443.21
2019-04-03T04:31:23.946Z,94432.93
2019-04-03T04:36:28.392Z,94432.80
2019-04-03T04:41:33.171Z,94425.66
2019-04-03T04:46:37.579Z,94427.59
2019-04-03T04:51:43.197Z,94423.86
2019-04-03T04:56:47.644Z,94425.38
2019-04-03T05:01:52.106Z,94422.88
2019-04-03T05:06:59.683Z,94426.98
2019-04-03T05:12:02.749Z,94428.02
2019-04-03T05:17:07.305Z,94432.09
2019-04-03T05:22:12.072Z,94428.47
2019-04-03T05:27:16.614Z,94429.33
2019-04-03T05:32:21.057Z,94423.29
2019-04-03T05:37:25.784Z,94420.81
2019-04-03T05:42:30.256Z,94416.42
2019-04-03T05:47:35.106Z,94410.97
2019-04-03T05:52:39.653Z,94414.62
2019-04-03T05:57:45.972Z,94411.41
2019-04-03T06:02:52.575Z,94407.89
2019-04-03T06:07:56.761Z,94404.88
2019-04-03T06:13:01.207Z,94403.12
2019-04-03T06:18:05.816Z,94394.67
2019-04-03T06:23:10.276Z,94389.20
2019-04-03T06:28:14.765Z,94389.05
2019-04-03T06:33:19.484Z,94382.46
2019-04-03T06:38:24.870Z,94381.53
2019-04-03T06:43:30.657Z,94377.17
2019-04-03T06:48:36.518Z,94376.78
2019-04-03T06:53:41.458Z,94368.92
2019-04-03T06:58:45.975Z,94369.14
2019-04-03T07:03:50.639Z,94371.66
2019-04-03T07:08:55.097Z,94367.20
2019-04-03T07:13:59.569Z,94365.88
2019-04-03T07:19:04.022Z,94368.00
2019-04-03T07:24:08.720Z,94367.89
2019-04-03T07:29:16.309Z,94364.69
2019-04-03T07:34:19.543Z,94360.25
2019-04-03T07:39:23.967Z,94358.20
2019-04-03T07:44:29.803Z,94357.46
2019-04-03T07:49:34.806Z,94355.34
2019-04-03T07:54:39.360Z,94359.34
2019-04-03T07:59:43.905Z,94361.69
2019-04-03T08:04:48.342Z,94352.06
2019-04-03T08:09:52.795Z,94344.92
2019-04-03T08:14:57.244Z,94344.00
2019-04-03T08:20:01.711Z,94338.80
2019-04-03T08:25:11.032Z,94340.34
2019-04-03T08:30:14.935Z,94341.59
2019-04-03T08:35:23.157Z,94319.98
2019-04-03T08:40:26.050Z,94314.97
2019-04-03T08:45:30.749Z,94312.91
2019-04-03T08:50:35.308Z,94314.70
2019-04-03T08:55:39.782Z,94304.78
2019-04-03T09:00:44.256Z,94299.27
2019-04-03T09:05:51.041Z,94300.83
2019-04-03T09:10:54.891Z,94291.42
2019-04-03T09:16:00.355Z,94282.09
2019-04-03T09:21:05.424Z,94284.81
2019-04-03T09:26:10.082Z,94271.97
2019-04-03T09:31:14.660Z,94271.53
2019-04-03T09:36:19.265Z,94267.85
2019-04-03T09:41:23.829Z,94250.88
2019-04-03T09:46:30.478Z,94244.64
2019-04-03T09:51:34.481Z,94236.51
2019-04-03T09:56:54.481Z,94229.34
2019-04-03T10:01:47.132Z,94224.73
2019-04-03T10:06:51.394Z,94206.83
2019-04-03T10:11:55.856Z,94202.14
2019-04-03T10:17:00.314Z,94176.73
2019-04-03T10:22:05.080Z,94170.51
2019-04-03T10:27:11.183Z,94167.16
2019-04-03T10:32:15.961Z,94170.84
2019-04-03T10:37:20.548Z,94154.66
2019-04-03T10:42:25.186Z,94148.63
2019-04-03T10:47:40.390Z,94137.73
2019-04-03T10:52:35.933Z,94129.61
2019-04-03T10:57:40.666Z,94128.70
2019-04-03T11:02:45.150Z,94113.11
2019-04-03T11:07:49.587Z,94103.92
2019-04-03T11:13:13.372Z,94088.50
2019-04-03T11:18:20.484Z,94077.06
2019-04-03T11:23:36.614Z,94074.59
2019-04-03T11:28:30.707Z,94069.03
2019-04-03T11:33:35.422Z,94051.66
2019-04-03T11:38:40.221Z,94056.91
2019-04-03T11:43:44.705Z,94047.16
2019-04-03T11:48:49.305Z,94040.66
2019-04-03T11:53:53.839Z,94022.27
2019-04-03T11:58:58.491Z,94016.59
2019-04-03T12:04:12.779Z,94012.81
2019-04-03T12:09:17.296Z,94001.02
2019-04-03T12:14:21.740Z,93995.88
2019-04-03T12:19:28.259Z,93978.94
2019-04-03T12:24:32.947Z,93968.27
2019-04-03T12:29:37.562Z,93946.06
2019-04-03T12:34:42.035Z,93947.83
2019-04-03T12:39:46.537Z,93932.96
2019-04-03T12:44:54.039Z,93932.57
2019-04-03T12:49:57.331Z,93926.66
2019-04-03T12:55:01.934Z,93916.47
2019-04-03T13:00:13.098Z,93901.36
2019-04-03T13:05:18.566Z,93901.27
2019-04-03T13:10:23.359Z,93889.13
2019-04-03T13:15:28.471Z,93881.02
2019-04-03T13:20:36.038Z,93891.13
2019-04-03T13:25:39.240Z,93888.91
2019-04-03T13:30:44.855Z,93886.43
2019-04-03T13:35:49.614Z,93868.62
2019-04-03T13:40:54.207Z,93863.92
2019-04-03T13:45:59.042Z,93862.55
2019-04-03T13:51:03.618Z,93860.13
2019-04-03T13:56:10.269Z,93862.75
2019-04-03T14:01:14.800Z,93853.09
2019-04-03T14:06:19.712Z,93853.95
2019-04-03T14:11:24.359Z,93833.70
2019-04-03T14:16:29.046Z,93847.41
2019-04-03T14:21:35.735Z,93834.52
2019-04-03T14:26:39.958Z,93828.37
2019-04-03T14:31:47.959Z,93822.11
2019-04-03T14:36:51.129Z,93827.56
2019-04-03T14:41:56.151Z,93842.13
2019-04-03T14:47:01.196Z,93831.84
2019-04-03T14:52:05.759Z,93828.03
2019-04-03T14:57:20.250Z,93816.17
2019-04-03T15:02:16.938Z,93810.06
2019-04-03T15:07:21.438Z,93821.09
2019-04-03T15:12:26.390Z,93803.94
2019-04-03T15:17:30.957Z,93811.28
2019-04-03T15:22:35.795Z,93807.46
2019-04-03T15:27:40.380Z,93806.94
2019-04-03T15:32:44.913Z,93803.28
2019-04-03T15:37:49.457Z,93795.88
2019-04-03T15:42:54.718Z,93798.78
2019-04-03T15:47:59.774Z,93790.23
2019-04-03T15:53:04.635Z,93788.00
2019-04-03T15:58:09.438Z,93792.08
2019-04-03T16:03:14.976Z,93796.92
2019-04-03T16:08:20.621Z,93784.58
2019-04-03T16:13:25.693Z,93774.55
2019-04-03T16:18:30.690Z,93771.65
2019-04-03T16:23:37.281Z,93773.89
2019-04-03T16:28:41.947Z,93760.97
2019-04-03T16:33:46.659Z,93768.30
2019-04-03T16:38:51.676Z,93771.66
2019-04-03T16:43:56.199Z,93767.62
2019-04-03T16:49:00.994Z,93774.71
2019-04-03T16:54:06.447Z,93773.48
2019-04-03T16:59:11.058Z,93765.59
2019-04-03T17:04:25.371Z,93773.46
2019-04-03T17:09:21.802Z,93774.26
2019-04-03T17:14:26.244Z,93773.78
2019-04-03T17:19:51.482Z,93765.20
2019-04-03T17:24:56.529Z,93764.65
2019-04-03T17:30:01.494Z,93759.70
2019-04-03T17:35:08.743Z,93766.19
2019-04-03T17:40:14.187Z,93762.48
2019-04-03T17:45:18.729Z,93765.83
2019-04-03T17:50:23.202Z,93757.94
2019-04-03T17:55:27.656Z,93756.48
2019-04-03T18:00:32.180Z,93771.48
2019-04-03T18:05:36.639Z,93783.48
2019-04-03T18:10:42.631Z,93781.32
2019-04-03T18:15:47.420Z,93777.47
2019-04-03T18:20:51.944Z,93781.19
2019-04-03T18:25:57.825Z,93778.04
2019-04-03T18:31:02.612Z,93771.92
2019-04-03T18:36:07.077Z,93779.09
2019-04-03T18:41:11.780Z,93778.79
2019-04-03T18:46:31.123Z,93789.06
2019-04-03T18:51:32.228Z,93789.58
2019-04-03T18:56:36.780Z,93793.21
2019-04-03T19:01:41.238Z,93796.96
2019-04-03T19:06:45.862Z,93793.05
2019-04-03T19:11:51.522Z,93796.20
2019-04-03T19:16:57.080Z,93791.41
2019-04-03T19:22:01.530Z,93796.75
2019-04-03T19:27:06.156Z,93800.28
2019-04-03T19:32:12.227Z,93797.21
2019-04-03T19:37:16.850Z,93802.38
2019-04-03T19:42:21.390Z,93799.28
2019-04-03T19:47:25.907Z,93801.45
2019-04-03T19:52:30.610Z,93798.71
2019-04-03T19:57:35.152Z,93791.30
2019-04-03T20:02:42.735Z,93797.06
2019-04-03T20:07:45.800Z,93793.23
2019-04-03T20:12:50.803Z,93859.23
2019-04-03T20:17:55.467Z,93889.15
2019-04-03T20:23:00.006Z,93911.14
2019-04-03T20:28:04.585Z,93943.70
2019-04-03T20:33:11.517Z,93968.62
2019-04-03T20:38:15.547Z,93979.87
2019-04-03T20:43:20.003Z,94004.02
2019-04-03T20:48:28.079Z,94012.16
2019-04-03T20:53:30.641Z,94031.09
2019-04-03T20:58:35.394Z,94035.50
2019-04-03T21:03:39.837Z,94041.51
2019-04-03T21:08:44.279Z,94041.85
2019-04-03T21:13:48.736Z,94043.94
2019-04-03T21:18:53.190Z,94052.45
2019-04-03T21:23:57.645Z,94041.88
2019-04-03T21:29:02.075Z,94036.70
2019-04-03T21:34:06.545Z,94060.49
2019-04-03T21:39:12.858Z,94066.19
2019-04-03T21:44:17.139Z,94077.13
2019-04-03T21:49:21.587Z,94096.76
2019-04-03T21:54:26.850Z,94091.55
2019-04-03T21:59:31.741Z,94094.97
2019-04-03T22:04:36.185Z,94094.39
2019-04-03T22:09:40.686Z,94089.11
2019-04-03T22:14:45.133Z,94103.17
2019-04-03T22:19:49.578Z,94099.59
2019-04-03T22:24:54.016Z,94098.53
2019-04-03T22:29:58.452Z,94080.10
2019-04-03T22:35:04.525Z,94090.58
2019-04-03T22:40:10.615Z,94099.27
2019-04-03T22:45:15.338Z,94097.05
2019-04-03T22:50:19.798Z,94091.42
2019-04-03T22:55:24.247Z,94099.80
2019-04-03T23:00:28.691Z,94093.70
2019-04-03T23:05:33.482Z,94069.92
2019-04-03T23:10:37.938Z,94066.32
2019-04-03T23:15:43.486Z,94059.26
2019-04-03T23:20:47.941Z,94064.48
2019-04-03T23:25:52.417Z,94048.77
2019-04-03T23:30:56.854Z,94039.75
2019-04-03T23:36:01.305Z,94021.12
2019-04-03T23:41:06.124Z,94025.03
2019-04-03T23:46:12.808Z,94013.92
2019-04-03T23:51:23.028Z,94017.91
2019-04-03T23:56:23.563Z,94021.38
